sensor_id;sensor_type;location;lat;lon;timestamp;P1;durP1;ratioP1;P2;durP2;ratioP2
13660;SDS011;6903;49.480;11.102;2022-09-09T00:00:17;5.37;;;3.37;;
13660;SDS011;6903;49.480;11.102;2022-09-09T00:03:01;4.80;;;3.27;;
13660;SDS011;6903;49.480;11.102;2022-09-09T00:05:42;5.63;;;4.00;;
13660;SDS011;6903;49.480;11.102;2022-09-09T00:08:18;6.50;;;3.70;;
13660;SDS011;6903;49.480;11.102;2022-09-09T00:10:48;7.43;;;4.03;;
13660;SDS011;6903;49.480;11.102;2022-09-09T00:13:22;5.87;;;3.43;;
13660;SDS011;6903;49.480;11.102;2022-09-09T00:21:51;6.00;;;3.50;;
13660;SDS011;6903;49.480;11.102;2022-09-09T00:27:08;6.73;;;4.00;;
13660;SDS011;6903;49.480;11.102;2022-09-09T00:32:19;5.73;;;3.93;;
13660;SDS011;6903;49.480;11.102;2022-09-09T00:35:12;7.90;;;3.93;;
13660;SDS011;6903;49.480;11.102;2022-09-09T00:37:43;9.03;;;4.00;;
13660;SDS011;6903;49.480;11.102;2022-09-09T00:54:31;5.27;;;3.90;;
13660;SDS011;6903;49.480;11.102;2022-09-09T00:57:13;6.53;;;4.70;;
13660;SDS011;6903;49.480;11.102;2022-09-09T00:59:52;6.50;;;4.47;;
13660;SDS011;6903;49.480;11.102;2022-09-09T01:05:59;7.37;;;4.30;;
13660;SDS011;6903;49.480;11.102;2022-09-09T01:11:31;7.57;;;4.50;;
13660;SDS011;6903;49.480;11.102;2022-09-09T01:14:23;8.33;;;5.23;;
13660;SDS011;6903;49.480;11.102;2022-09-09T01:16:58;9.93;;;4.47;;
13660;SDS011;6903;49.480;11.102;2022-09-09T01:20:12;11.40;;;4.93;;
13660;SDS011;6903;49.480;11.102;2022-09-09T01:22:58;8.50;;;4.83;;
13660;SDS011;6903;49.480;11.102;2022-09-09T01:28:11;8.90;;;4.30;;
13660;SDS011;6903;49.480;11.102;2022-09-09T01:30:42;13.47;;;4.50;;
13660;SDS011;6903;49.480;11.102;2022-09-09T01:33:10;6.83;;;4.60;;
13660;SDS011;6903;49.480;11.102;2022-09-09T01:38:11;7.83;;;4.50;;
13660;SDS011;6903;49.480;11.102;2022-09-09T01:40:39;8.73;;;3.97;;
13660;SDS011;6903;49.480;11.102;2022-09-09T01:43:04;6.53;;;4.60;;
13660;SDS011;6903;49.480;11.102;2022-09-09T01:45:31;7.67;;;4.57;;
13660;SDS011;6903;49.480;11.102;2022-09-09T01:47:57;7.07;;;5.00;;
13660;SDS011;6903;49.480;11.102;2022-09-09T01:50:23;14.13;;;4.70;;
13660;SDS011;6903;49.480;11.102;2022-09-09T01:52:54;6.50;;;4.47;;
13660;SDS011;6903;49.480;11.102;2022-09-09T01:55:31;8.40;;;4.20;;
13660;SDS011;6903;49.480;11.102;2022-09-09T01:58:16;10.53;;;4.60;;
13660;SDS011;6903;49.480;11.102;2022-09-09T02:04:01;8.77;;;4.40;;
13660;SDS011;6903;49.480;11.102;2022-09-09T02:09:05;8.07;;;4.30;;
13660;SDS011;6903;49.480;11.102;2022-09-09T02:11:33;5.60;;;4.10;;
13660;SDS011;6903;49.480;11.102;2022-09-09T02:14:09;5.47;;;3.80;;
13660;SDS011;6903;49.480;11.102;2022-09-09T02:16:43;5.17;;;3.63;;
13660;SDS011;6903;49.480;11.102;2022-09-09T02:21:38;4.83;;;3.40;;
13660;SDS011;6903;49.480;11.102;2022-09-09T02:24:07;5.07;;;3.33;;
13660;SDS011;6903;49.480;11.102;2022-09-09T02:26:35;4.17;;;3.23;;
13660;SDS011;6903;49.480;11.102;2022-09-09T02:29:07;6.27;;;3.40;;
13660;SDS011;6903;49.480;11.102;2022-09-09T02:31:36;4.80;;;3.20;;
13660;SDS011;6903;49.480;11.102;2022-09-09T02:34:03;4.57;;;3.00;;
13660;SDS011;6903;49.480;11.102;2022-09-09T02:36:32;5.10;;;3.07;;
13660;SDS011;6903;49.480;11.102;2022-09-09T02:38:59;3.60;;;2.47;;
13660;SDS011;6903;49.480;11.102;2022-09-09T02:41:31;4.60;;;3.23;;
13660;SDS011;6903;49.480;11.102;2022-09-09T02:43:58;4.07;;;3.00;;
13660;SDS011;6903;49.480;11.102;2022-09-09T02:46:44;5.10;;;2.70;;
13660;SDS011;6903;49.480;11.102;2022-09-09T02:49:51;4.20;;;2.80;;
13660;SDS011;6903;49.480;11.102;2022-09-09T02:52:30;4.57;;;2.70;;
13660;SDS011;6903;49.480;11.102;2022-09-09T02:55:05;3.90;;;2.90;;
13660;SDS011;6903;49.480;11.102;2022-09-09T02:57:42;5.10;;;3.00;;
13660;SDS011;6903;49.480;11.102;2022-09-09T03:00:12;3.93;;;2.63;;
13660;SDS011;6903;49.480;11.102;2022-09-09T03:02:37;4.27;;;2.80;;
13660;SDS011;6903;49.480;11.102;2022-09-09T03:05:03;3.53;;;2.53;;
13660;SDS011;6903;49.480;11.102;2022-09-09T03:07:30;2.63;;;2.40;;
13660;SDS011;6903;49.480;11.102;2022-09-09T03:09:55;4.27;;;2.70;;
13660;SDS011;6903;49.480;11.102;2022-09-09T03:12:20;4.00;;;2.53;;
13660;SDS011;6903;49.480;11.102;2022-09-09T03:14:46;5.93;;;2.80;;
13660;SDS011;6903;49.480;11.102;2022-09-09T03:17:11;5.17;;;2.80;;
13660;SDS011;6903;49.480;11.102;2022-09-09T03:19:37;5.97;;;2.67;;
13660;SDS011;6903;49.480;11.102;2022-09-09T03:22:02;2.80;;;2.60;;
13660;SDS011;6903;49.480;11.102;2022-09-09T03:24:29;5.37;;;2.40;;
13660;SDS011;6903;49.480;11.102;2022-09-09T03:26:54;3.93;;;2.47;;
13660;SDS011;6903;49.480;11.102;2022-09-09T03:29:20;3.93;;;2.60;;
13660;SDS011;6903;49.480;11.102;2022-09-09T03:31:46;2.90;;;2.47;;
13660;SDS011;6903;49.480;11.102;2022-09-09T03:34:12;4.73;;;2.60;;
13660;SDS011;6903;49.480;11.102;2022-09-09T03:36:38;2.77;;;2.50;;
13660;SDS011;6903;49.480;11.102;2022-09-09T03:39:06;3.63;;;2.60;;
13660;SDS011;6903;49.480;11.102;2022-09-09T03:41:31;3.77;;;2.80;;
13660;SDS011;6903;49.480;11.102;2022-09-09T03:43:56;4.43;;;2.60;;
13660;SDS011;6903;49.480;11.102;2022-09-09T03:46:22;2.53;;;2.33;;
13660;SDS011;6903;49.480;11.102;2022-09-09T03:48:49;4.80;;;2.80;;
13660;SDS011;6903;49.480;11.102;2022-09-09T03:51:15;3.70;;;2.70;;
13660;SDS011;6903;49.480;11.102;2022-09-09T03:53:41;3.73;;;2.90;;
13660;SDS011;6903;49.480;11.102;2022-09-09T03:56:08;4.57;;;3.07;;
13660;SDS011;6903;49.480;11.102;2022-09-09T03:58:34;3.80;;;2.87;;
13660;SDS011;6903;49.480;11.102;2022-09-09T04:01:22;5.77;;;2.77;;
13660;SDS011;6903;49.480;11.102;2022-09-09T04:03:46;3.60;;;2.90;;
13660;SDS011;6903;49.480;11.102;2022-09-09T04:06:12;3.23;;;2.93;;
13660;SDS011;6903;49.480;11.102;2022-09-09T04:08:39;4.00;;;2.93;;
13660;SDS011;6903;49.480;11.102;2022-09-09T04:11:05;4.13;;;2.60;;
13660;SDS011;6903;49.480;11.102;2022-09-09T04:13:31;3.13;;;2.73;;
13660;SDS011;6903;49.480;11.102;2022-09-09T04:16:01;4.67;;;2.80;;
13660;SDS011;6903;49.480;11.102;2022-09-09T04:18:28;4.70;;;2.40;;
13660;SDS011;6903;49.480;11.102;2022-09-09T04:20:54;3.17;;;2.70;;
13660;SDS011;6903;49.480;11.102;2022-09-09T04:23:23;3.63;;;2.60;;
13660;SDS011;6903;49.480;11.102;2022-09-09T04:25:53;4.47;;;2.57;;
13660;SDS011;6903;49.480;11.102;2022-09-09T04:28:20;5.00;;;2.90;;
13660;SDS011;6903;49.480;11.102;2022-09-09T04:30:47;7.20;;;3.40;;
13660;SDS011;6903;49.480;11.102;2022-09-09T04:33:13;3.80;;;2.70;;
13660;SDS011;6903;49.480;11.102;2022-09-09T04:35:39;3.40;;;2.97;;
13660;SDS011;6903;49.480;11.102;2022-09-09T04:38:09;3.20;;;2.90;;
13660;SDS011;6903;49.480;11.102;2022-09-09T04:40:35;3.83;;;2.87;;
13660;SDS011;6903;49.480;11.102;2022-09-09T04:43:01;4.90;;;2.97;;
13660;SDS011;6903;49.480;11.102;2022-09-09T04:45:29;5.60;;;3.00;;
13660;SDS011;6903;49.480;11.102;2022-09-09T04:47:55;5.30;;;3.30;;
13660;SDS011;6903;49.480;11.102;2022-09-09T04:50:21;4.53;;;3.27;;
13660;SDS011;6903;49.480;11.102;2022-09-09T04:52:46;3.83;;;3.13;;
13660;SDS011;6903;49.480;11.102;2022-09-09T04:55:12;4.80;;;3.07;;
13660;SDS011;6903;49.480;11.102;2022-09-09T04:57:40;5.70;;;3.57;;
13660;SDS011;6903;49.480;11.102;2022-09-09T05:00:06;4.43;;;3.43;;
13660;SDS011;6903;49.480;11.102;2022-09-09T05:02:32;7.33;;;3.20;;
13660;SDS011;6903;49.480;11.102;2022-09-09T05:04:58;6.10;;;3.10;;
13660;SDS011;6903;49.480;11.102;2022-09-09T05:07:24;4.10;;;3.20;;
13660;SDS011;6903;49.480;11.102;2022-09-09T05:09:51;5.93;;;2.97;;
13660;SDS011;6903;49.480;11.102;2022-09-09T05:12:16;5.10;;;2.97;;
13660;SDS011;6903;49.480;11.102;2022-09-09T05:14:42;9.00;;;3.43;;
13660;SDS011;6903;49.480;11.102;2022-09-09T05:17:08;4.33;;;2.57;;
13660;SDS011;6903;49.480;11.102;2022-09-09T05:19:34;6.47;;;3.10;;
13660;SDS011;6903;49.480;11.102;2022-09-09T05:21:59;4.57;;;2.57;;
13660;SDS011;6903;49.480;11.102;2022-09-09T05:24:26;3.87;;;2.83;;
13660;SDS011;6903;49.480;11.102;2022-09-09T05:26:51;4.17;;;3.13;;
13660;SDS011;6903;49.480;11.102;2022-09-09T05:29:16;5.00;;;3.17;;
13660;SDS011;6903;49.480;11.102;2022-09-09T05:31:44;2.70;;;2.50;;
13660;SDS011;6903;49.480;11.102;2022-09-09T05:34:10;4.27;;;2.83;;
13660;SDS011;6903;49.480;11.102;2022-09-09T05:36:36;3.10;;;2.50;;
13660;SDS011;6903;49.480;11.102;2022-09-09T05:39:02;5.03;;;2.70;;
13660;SDS011;6903;49.480;11.102;2022-09-09T05:41:27;3.23;;;2.50;;
13660;SDS011;6903;49.480;11.102;2022-09-09T05:43:53;4.23;;;2.80;;
13660;SDS011;6903;49.480;11.102;2022-09-09T05:46:20;2.73;;;2.30;;
13660;SDS011;6903;49.480;11.102;2022-09-09T05:48:47;3.77;;;2.20;;
13660;SDS011;6903;49.480;11.102;2022-09-09T05:51:16;5.70;;;2.23;;
13660;SDS011;6903;49.480;11.102;2022-09-09T05:53:43;3.97;;;2.43;;
13660;SDS011;6903;49.480;11.102;2022-09-09T05:56:16;3.33;;;2.50;;
13660;SDS011;6903;49.480;11.102;2022-09-09T05:58:44;3.27;;;2.30;;
13660;SDS011;6903;49.480;11.102;2022-09-09T06:01:12;5.37;;;2.00;;
13660;SDS011;6903;49.480;11.102;2022-09-09T06:03:40;3.17;;;2.40;;
13660;SDS011;6903;49.480;11.102;2022-09-09T06:06:07;3.10;;;2.40;;
13660;SDS011;6903;49.480;11.102;2022-09-09T06:08:37;2.67;;;2.40;;
13660;SDS011;6903;49.480;11.102;2022-09-09T06:11:10;3.27;;;2.40;;
13660;SDS011;6903;49.480;11.102;2022-09-09T06:13:37;4.83;;;2.70;;
13660;SDS011;6903;49.480;11.102;2022-09-09T06:16:04;3.13;;;2.37;;
13660;SDS011;6903;49.480;11.102;2022-09-09T06:18:32;5.53;;;2.97;;
13660;SDS011;6903;49.480;11.102;2022-09-09T06:20:58;6.70;;;2.83;;
13660;SDS011;6903;49.480;11.102;2022-09-09T06:23:29;5.63;;;2.53;;
13660;SDS011;6903;49.480;11.102;2022-09-09T06:28:35;4.63;;;2.60;;
13660;SDS011;6903;49.480;11.102;2022-09-09T06:31:02;5.17;;;2.57;;
13660;SDS011;6903;49.480;11.102;2022-09-09T06:33:31;3.93;;;2.30;;
13660;SDS011;6903;49.480;11.102;2022-09-09T06:35:59;3.57;;;2.47;;
13660;SDS011;6903;49.480;11.102;2022-09-09T06:38:25;6.00;;;2.47;;
13660;SDS011;6903;49.480;11.102;2022-09-09T06:40:54;4.03;;;2.30;;
13660;SDS011;6903;49.480;11.102;2022-09-09T06:43:21;6.57;;;2.10;;
13660;SDS011;6903;49.480;11.102;2022-09-09T06:48:20;5.30;;;2.25;;
13660;SDS011;6903;49.480;11.102;2022-09-09T06:50:45;11.65;;;2.17;;
13660;SDS011;6903;49.480;11.102;2022-09-09T06:53:11;2.28;;;2.03;;
13660;SDS011;6903;49.480;11.102;2022-09-09T06:55:36;4.88;;;2.50;;
13660;SDS011;6903;49.480;11.102;2022-09-09T06:58:02;6.18;;;2.20;;
13660;SDS011;6903;49.480;11.102;2022-09-09T07:00:27;4.20;;;2.03;;
13660;SDS011;6903;49.480;11.102;2022-09-09T07:02:53;4.93;;;2.10;;
13660;SDS011;6903;49.480;11.102;2022-09-09T07:05:18;3.05;;;1.95;;
13660;SDS011;6903;49.480;11.102;2022-09-09T07:07:44;5.10;;;1.75;;
13660;SDS011;6903;49.480;11.102;2022-09-09T07:10:09;6.85;;;2.13;;
13660;SDS011;6903;49.480;11.102;2022-09-09T07:12:35;4.25;;;1.75;;
13660;SDS011;6903;49.480;11.102;2022-09-09T07:15:00;3.83;;;1.95;;
13660;SDS011;6903;49.480;11.102;2022-09-09T07:17:25;2.70;;;1.60;;
13660;SDS011;6903;49.480;11.102;2022-09-09T07:19:54;5.60;;;1.98;;
13660;SDS011;6903;49.480;11.102;2022-09-09T07:22:19;3.38;;;1.90;;
13660;SDS011;6903;49.480;11.102;2022-09-09T07:24:45;3.78;;;1.55;;
13660;SDS011;6903;49.480;11.102;2022-09-09T07:27:10;3.35;;;1.70;;
13660;SDS011;6903;49.480;11.102;2022-09-09T07:29:35;2.05;;;1.77;;
13660;SDS011;6903;49.480;11.102;2022-09-09T07:32:01;5.47;;;1.80;;
13660;SDS011;6903;49.480;11.102;2022-09-09T07:34:27;3.78;;;1.70;;
13660;SDS011;6903;49.480;11.102;2022-09-09T07:36:52;2.90;;;1.92;;
13660;SDS011;6903;49.480;11.102;2022-09-09T07:39:18;5.30;;;1.65;;
13660;SDS011;6903;49.480;11.102;2022-09-09T07:41:44;3.53;;;1.60;;
13660;SDS011;6903;49.480;11.102;2022-09-09T07:44:18;7.05;;;1.70;;
13660;SDS011;6903;49.480;11.102;2022-09-09T07:46:48;3.33;;;1.50;;
13660;SDS011;6903;49.480;11.102;2022-09-09T07:49:14;5.40;;;1.70;;
13660;SDS011;6903;49.480;11.102;2022-09-09T07:51:41;2.88;;;1.75;;
13660;SDS011;6903;49.480;11.102;2022-09-09T07:54:09;2.53;;;1.70;;
13660;SDS011;6903;49.480;11.102;2022-09-09T07:56:36;3.03;;;1.80;;
13660;SDS011;6903;49.480;11.102;2022-09-09T07:59:02;6.53;;;1.77;;
13660;SDS011;6903;49.480;11.102;2022-09-09T08:01:32;4.90;;;1.63;;
13660;SDS011;6903;49.480;11.102;2022-09-09T08:04:01;4.22;;;1.70;;
13660;SDS011;6903;49.480;11.102;2022-09-09T08:06:30;2.35;;;1.30;;
13660;SDS011;6903;49.480;11.102;2022-09-09T08:08:58;2.35;;;1.45;;
13660;SDS011;6903;49.480;11.102;2022-09-09T08:11:25;3.83;;;1.48;;
13660;SDS011;6903;49.480;11.102;2022-09-09T08:13:53;3.00;;;1.55;;
13660;SDS011;6903;49.480;11.102;2022-09-09T08:16:19;4.28;;;1.80;;
13660;SDS011;6903;49.480;11.102;2022-09-09T08:18:47;3.53;;;1.48;;
13660;SDS011;6903;49.480;11.102;2022-09-09T08:21:16;3.25;;;1.38;;
13660;SDS011;6903;49.480;11.102;2022-09-09T08:23:46;3.45;;;1.35;;
13660;SDS011;6903;49.480;11.102;2022-09-09T08:26:13;3.28;;;1.30;;
13660;SDS011;6903;49.480;11.102;2022-09-09T08:28:44;2.08;;;1.25;;
13660;SDS011;6903;49.480;11.102;2022-09-09T08:31:11;2.28;;;1.20;;
13660;SDS011;6903;49.480;11.102;2022-09-09T08:33:41;3.92;;;1.33;;
13660;SDS011;6903;49.480;11.102;2022-09-09T08:36:08;6.10;;;1.70;;
13660;SDS011;6903;49.480;11.102;2022-09-09T08:38:35;3.22;;;1.35;;
13660;SDS011;6903;49.480;11.102;2022-09-09T08:43:58;3.03;;;1.33;;
13660;SDS011;6903;49.480;11.102;2022-09-09T08:46:46;4.68;;;1.38;;
13660;SDS011;6903;49.480;11.102;2022-09-09T08:52:04;2.85;;;1.10;;
13660;SDS011;6903;49.480;11.102;2022-09-09T08:54:38;2.92;;;1.15;;
13660;SDS011;6903;49.480;11.102;2022-09-09T08:57:05;3.35;;;1.10;;
13660;SDS011;6903;49.480;11.102;2022-09-09T08:59:39;1.85;;;1.15;;
13660;SDS011;6903;49.480;11.102;2022-09-09T09:02:16;2.20;;;1.20;;
13660;SDS011;6903;49.480;11.102;2022-09-09T09:10:17;2.58;;;1.50;;
13660;SDS011;6903;49.480;11.102;2022-09-09T09:12:55;3.08;;;1.30;;
13660;SDS011;6903;49.480;11.102;2022-09-09T09:15:23;3.17;;;1.45;;
13660;SDS011;6903;49.480;11.102;2022-09-09T09:17:50;4.38;;;1.30;;
13660;SDS011;6903;49.480;11.102;2022-09-09T09:20:16;3.40;;;1.25;;
13660;SDS011;6903;49.480;11.102;2022-09-09T09:22:50;3.53;;;1.52;;
13660;SDS011;6903;49.480;11.102;2022-09-09T09:25:22;2.70;;;1.40;;
13660;SDS011;6903;49.480;11.102;2022-09-09T09:28:38;3.20;;;1.45;;
13660;SDS011;6903;49.480;11.102;2022-09-09T09:33:51;2.58;;;1.00;;
13660;SDS011;6903;49.480;11.102;2022-09-09T09:36:18;2.80;;;1.10;;
13660;SDS011;6903;49.480;11.102;2022-09-09T09:38:56;2.03;;;0.88;;
13660;SDS011;6903;49.480;11.102;2022-09-09T09:41:56;3.13;;;0.88;;
13660;SDS011;6903;49.480;11.102;2022-09-09T09:46:50;2.67;;;1.45;;
13660;SDS011;6903;49.480;11.102;2022-09-09T09:49:16;5.22;;;2.30;;
13660;SDS011;6903;49.480;11.102;2022-09-09T09:51:42;2.33;;;0.88;;
13660;SDS011;6903;49.480;11.102;2022-09-09T09:56:39;3.17;;;1.05;;
13660;SDS011;6903;49.480;11.102;2022-09-09T09:59:11;1.95;;;0.82;;
13660;SDS011;6903;49.480;11.102;2022-09-09T10:01:45;3.20;;;1.00;;
13660;SDS011;6903;49.480;11.102;2022-09-09T10:04:14;2.17;;;0.95;;
13660;SDS011;6903;49.480;11.102;2022-09-09T10:06:41;2.08;;;0.88;;
13660;SDS011;6903;49.480;11.102;2022-09-09T10:09:23;2.47;;;1.17;;
13660;SDS011;6903;49.480;11.102;2022-09-09T10:11:55;1.63;;;0.80;;
13660;SDS011;6903;49.480;11.102;2022-09-09T10:14:30;2.28;;;0.93;;
13660;SDS011;6903;49.480;11.102;2022-09-09T10:20:11;1.33;;;0.88;;
13660;SDS011;6903;49.480;11.102;2022-09-09T10:22:40;1.77;;;0.90;;
13660;SDS011;6903;49.480;11.102;2022-09-09T10:44:06;3.13;;;1.00;;
13660;SDS011;6903;49.480;11.102;2022-09-09T10:55:00;1.58;;;0.88;;
13660;SDS011;6903;49.480;11.102;2022-09-09T11:00:13;2.58;;;1.08;;
13660;SDS011;6903;49.480;11.102;2022-09-09T11:02:40;2.17;;;1.17;;
13660;SDS011;6903;49.480;11.102;2022-09-09T11:05:10;3.83;;;1.10;;
13660;SDS011;6903;49.480;11.102;2022-09-09T11:07:56;2.08;;;1.00;;
13660;SDS011;6903;49.480;11.102;2022-09-09T11:10:33;1.60;;;0.90;;
13660;SDS011;6903;49.480;11.102;2022-09-09T11:13:13;1.08;;;0.77;;
13660;SDS011;6903;49.480;11.102;2022-09-09T11:16:01;2.65;;;1.10;;
13660;SDS011;6903;49.480;11.102;2022-09-09T11:18:37;2.35;;;0.93;;
13660;SDS011;6903;49.480;11.102;2022-09-09T11:21:12;1.48;;;1.00;;
13660;SDS011;6903;49.480;11.102;2022-09-09T11:23:45;2.20;;;1.17;;
13660;SDS011;6903;49.480;11.102;2022-09-09T11:26:24;0.70;;;0.60;;
13660;SDS011;6903;49.480;11.102;2022-09-09T11:29:17;4.90;;;1.30;;
13660;SDS011;6903;49.480;11.102;2022-09-09T11:40:54;1.63;;;0.80;;
13660;SDS011;6903;49.480;11.102;2022-09-09T11:43:25;2.40;;;0.95;;
13660;SDS011;6903;49.480;11.102;2022-09-09T11:45:55;3.92;;;1.02;;
13660;SDS011;6903;49.480;11.102;2022-09-09T11:53:32;1.73;;;1.00;;
13660;SDS011;6903;49.480;11.102;2022-09-09T11:58:40;1.90;;;1.00;;
13660;SDS011;6903;49.480;11.102;2022-09-09T12:01:27;3.10;;;0.85;;
13660;SDS011;6903;49.480;11.102;2022-09-09T12:06:45;2.35;;;0.95;;
13660;SDS011;6903;49.480;11.102;2022-09-09T12:09:18;1.70;;;0.80;;
13660;SDS011;6903;49.480;11.102;2022-09-09T12:11:48;1.65;;;1.00;;
13660;SDS011;6903;49.480;11.102;2022-09-09T12:14:20;2.47;;;0.85;;
13660;SDS011;6903;49.480;11.102;2022-09-09T12:16:48;1.45;;;0.90;;
13660;SDS011;6903;49.480;11.102;2022-09-09T12:19:15;1.20;;;0.77;;
13660;SDS011;6903;49.480;11.102;2022-09-09T12:24:37;3.78;;;0.98;;
13660;SDS011;6903;49.480;11.102;2022-09-09T12:29:55;3.95;;;1.17;;
13660;SDS011;6903;49.480;11.102;2022-09-09T12:32:28;1.85;;;0.95;;
13660;SDS011;6903;49.480;11.102;2022-09-09T12:34:55;1.40;;;0.85;;
13660;SDS011;6903;49.480;11.102;2022-09-09T12:37:47;2.08;;;0.90;;
13660;SDS011;6903;49.480;11.102;2022-09-09T12:42:52;0.90;;;0.70;;
13660;SDS011;6903;49.480;11.102;2022-09-09T12:45:18;1.83;;;0.90;;
13660;SDS011;6903;49.480;11.102;2022-09-09T12:48:07;1.40;;;0.77;;
13660;SDS011;6903;49.480;11.102;2022-09-09T12:50:34;1.08;;;0.80;;
13660;SDS011;6903;49.480;11.102;2022-09-09T12:53:09;1.30;;;0.80;;
13660;SDS011;6903;49.480;11.102;2022-09-09T12:55:40;1.58;;;0.93;;
13660;SDS011;6903;49.480;11.102;2022-09-09T12:58:15;3.10;;;0.90;;
13660;SDS011;6903;49.480;11.102;2022-09-09T13:00:50;1.60;;;0.90;;
13660;SDS011;6903;49.480;11.102;2022-09-09T13:03:22;2.75;;;1.00;;
13660;SDS011;6903;49.480;11.102;2022-09-09T13:05:49;2.17;;;1.00;;
13660;SDS011;6903;49.480;11.102;2022-09-09T13:08:15;2.58;;;0.98;;
13660;SDS011;6903;49.480;11.102;2022-09-09T13:10:53;4.55;;;1.20;;
13660;SDS011;6903;49.480;11.102;2022-09-09T13:13:28;3.50;;;1.05;;
13660;SDS011;6903;49.480;11.102;2022-09-09T13:16:03;5.72;;;1.00;;
13660;SDS011;6903;49.480;11.102;2022-09-09T13:18:33;2.30;;;1.00;;
13660;SDS011;6903;49.480;11.102;2022-09-09T13:21:00;2.30;;;0.80;;
13660;SDS011;6903;49.480;11.102;2022-09-09T13:23:27;2.90;;;1.08;;
13660;SDS011;6903;49.480;11.102;2022-09-09T13:26:00;2.65;;;1.00;;
13660;SDS011;6903;49.480;11.102;2022-09-09T13:28:31;1.70;;;0.70;;
13660;SDS011;6903;49.480;11.102;2022-09-09T13:30:57;3.28;;;0.90;;
13660;SDS011;6903;49.480;11.102;2022-09-09T13:33:38;2.58;;;0.82;;
13660;SDS011;6903;49.480;11.102;2022-09-09T13:36:05;1.63;;;0.90;;
13660;SDS011;6903;49.480;11.102;2022-09-09T13:38:33;2.70;;;0.80;;
13660;SDS011;6903;49.480;11.102;2022-09-09T13:41:04;2.58;;;0.80;;
13660;SDS011;6903;49.480;11.102;2022-09-09T13:43:34;2.13;;;0.70;;
13660;SDS011;6903;49.480;11.102;2022-09-09T13:46:03;1.92;;;0.70;;
13660;SDS011;6903;49.480;11.102;2022-09-09T13:48:53;1.77;;;0.77;;
13660;SDS011;6903;49.480;11.102;2022-09-09T13:54:02;2.58;;;0.85;;
13660;SDS011;6903;49.480;11.102;2022-09-09T13:56:32;1.98;;;0.80;;
13660;SDS011;6903;49.480;11.102;2022-09-09T13:58:58;2.45;;;0.80;;
13660;SDS011;6903;49.480;11.102;2022-09-09T14:01:23;1.98;;;0.80;;
13660;SDS011;6903;49.480;11.102;2022-09-09T14:03:48;0.88;;;0.80;;
13660;SDS011;6903;49.480;11.102;2022-09-09T14:06:14;3.20;;;1.00;;
13660;SDS011;6903;49.480;11.102;2022-09-09T14:08:39;1.00;;;0.70;;
13660;SDS011;6903;49.480;11.102;2022-09-09T14:11:05;2.33;;;0.88;;
13660;SDS011;6903;49.480;11.102;2022-09-09T14:13:31;1.40;;;0.70;;
13660;SDS011;6903;49.480;11.102;2022-09-09T14:15:57;1.38;;;0.77;;
13660;SDS011;6903;49.480;11.102;2022-09-09T14:18:22;1.63;;;0.73;;
13660;SDS011;6903;49.480;11.102;2022-09-09T14:20:48;2.42;;;0.80;;
13660;SDS011;6903;49.480;11.102;2022-09-09T14:23:15;1.55;;;0.80;;
13660;SDS011;6903;49.480;11.102;2022-09-09T14:25:41;0.77;;;0.65;;
13660;SDS011;6903;49.480;11.102;2022-09-09T14:28:11;0.88;;;0.60;;
13660;SDS011;6903;49.480;11.102;2022-09-09T14:30:38;2.50;;;0.95;;
13660;SDS011;6903;49.480;11.102;2022-09-09T14:33:05;2.45;;;0.88;;
13660;SDS011;6903;49.480;11.102;2022-09-09T14:35:30;1.48;;;0.70;;
13660;SDS011;6903;49.480;11.102;2022-09-09T14:37:55;2.30;;;0.50;;
13660;SDS011;6903;49.480;11.102;2022-09-09T14:40:21;2.70;;;0.80;;
13660;SDS011;6903;49.480;11.102;2022-09-09T14:42:46;5.28;;;1.13;;
13660;SDS011;6903;49.480;11.102;2022-09-09T14:45:12;2.45;;;0.85;;
13660;SDS011;6903;49.480;11.102;2022-09-09T14:47:37;3.30;;;0.90;;
13660;SDS011;6903;49.480;11.102;2022-09-09T14:50:03;1.13;;;0.70;;
13660;SDS011;6903;49.480;11.102;2022-09-09T14:52:30;1.17;;;0.60;;
13660;SDS011;6903;49.480;11.102;2022-09-09T14:54:55;1.50;;;0.77;;
13660;SDS011;6903;49.480;11.102;2022-09-09T14:57:20;1.98;;;1.00;;
13660;SDS011;6903;49.480;11.102;2022-09-09T14:59:46;1.98;;;1.08;;
13660;SDS011;6903;49.480;11.102;2022-09-09T15:02:11;2.25;;;0.90;;
13660;SDS011;6903;49.480;11.102;2022-09-09T15:04:38;1.30;;;0.70;;
13660;SDS011;6903;49.480;11.102;2022-09-09T15:07:04;2.05;;;0.98;;
13660;SDS011;6903;49.480;11.102;2022-09-09T15:09:29;2.42;;;1.05;;
13660;SDS011;6903;49.480;11.102;2022-09-09T15:11:55;2.00;;;0.90;;
13660;SDS011;6903;49.480;11.102;2022-09-09T15:14:20;1.60;;;0.85;;
13660;SDS011;6903;49.480;11.102;2022-09-09T15:16:45;1.95;;;0.80;;
13660;SDS011;6903;49.480;11.102;2022-09-09T15:19:11;5.00;;;1.15;;
13660;SDS011;6903;49.480;11.102;2022-09-09T15:21:36;2.10;;;0.88;;
13660;SDS011;6903;49.480;11.102;2022-09-09T15:24:03;3.83;;;1.00;;
13660;SDS011;6903;49.480;11.102;2022-09-09T15:26:29;1.15;;;0.70;;
13660;SDS011;6903;49.480;11.102;2022-09-09T15:28:55;1.73;;;0.93;;
13660;SDS011;6903;49.480;11.102;2022-09-09T15:31:25;2.38;;;1.00;;
13660;SDS011;6903;49.480;11.102;2022-09-09T15:33:57;2.42;;;1.10;;
13660;SDS011;6903;49.480;11.102;2022-09-09T15:36:29;1.77;;;0.90;;
13660;SDS011;6903;49.480;11.102;2022-09-09T15:38:55;2.08;;;0.80;;
13660;SDS011;6903;49.480;11.102;2022-09-09T15:41:21;3.20;;;0.95;;
13660;SDS011;6903;49.480;11.102;2022-09-09T15:43:48;2.38;;;1.10;;
13660;SDS011;6903;49.480;11.102;2022-09-09T15:48:44;1.45;;;0.75;;
13660;SDS011;6903;49.480;11.102;2022-09-09T15:51:10;3.97;;;2.03;;
13660;SDS011;6903;49.480;11.102;2022-09-09T15:53:36;5.00;;;1.90;;
13660;SDS011;6903;49.480;11.102;2022-09-09T15:56:05;3.80;;;1.80;;
13660;SDS011;6903;49.480;11.102;2022-09-09T15:58:31;3.03;;;1.35;;
13660;SDS011;6903;49.480;11.102;2022-09-09T16:01:04;5.32;;;2.17;;
13660;SDS011;6903;49.480;11.102;2022-09-09T16:03:41;2.72;;;1.25;;
13660;SDS011;6903;49.480;11.102;2022-09-09T16:06:07;1.63;;;0.80;;
13660;SDS011;6903;49.480;11.102;2022-09-09T16:08:34;2.08;;;0.80;;
13660;SDS011;6903;49.480;11.102;2022-09-09T16:11:42;1.02;;;0.75;;
13660;SDS011;6903;49.480;11.102;2022-09-09T16:13:52;2.63;;;1.13;;
13660;SDS011;6903;49.480;11.102;2022-09-09T16:16:19;3.45;;;0.90;;
13660;SDS011;6903;49.480;11.102;2022-09-09T16:18:47;0.65;;;0.55;;
13660;SDS011;6903;49.480;11.102;2022-09-09T16:21:15;0.55;;;0.52;;
13660;SDS011;6903;49.480;11.102;2022-09-09T16:23:45;1.65;;;0.80;;
13660;SDS011;6903;49.480;11.102;2022-09-09T16:26:12;0.75;;;0.57;;
13660;SDS011;6903;49.480;11.102;2022-09-09T16:28:39;0.50;;;0.50;;
13660;SDS011;6903;49.480;11.102;2022-09-09T16:31:05;1.48;;;0.70;;
13660;SDS011;6903;49.480;11.102;2022-09-09T16:33:31;1.05;;;0.60;;
13660;SDS011;6903;49.480;11.102;2022-09-09T16:35:57;0.60;;;0.50;;
13660;SDS011;6903;49.480;11.102;2022-09-09T16:38:22;0.50;;;0.50;;
13660;SDS011;6903;49.480;11.102;2022-09-09T16:40:48;0.60;;;0.50;;
13660;SDS011;6903;49.480;11.102;2022-09-09T16:43:14;1.10;;;0.50;;
13660;SDS011;6903;49.480;11.102;2022-09-09T16:45:44;0.70;;;0.57;;
13660;SDS011;6903;49.480;11.102;2022-09-09T16:48:10;1.20;;;0.60;;
13660;SDS011;6903;49.480;11.102;2022-09-09T16:50:35;0.90;;;0.70;;
13660;SDS011;6903;49.480;11.102;2022-09-09T16:53:01;0.75;;;0.50;;
13660;SDS011;6903;49.480;11.102;2022-09-09T16:55:31;1.38;;;0.70;;
13660;SDS011;6903;49.480;11.102;2022-09-09T16:57:57;0.95;;;0.60;;
13660;SDS011;6903;49.480;11.102;2022-09-09T17:00:22;0.85;;;0.50;;
13660;SDS011;6903;49.480;11.102;2022-09-09T17:02:48;1.27;;;0.63;;
13660;SDS011;6903;49.480;11.102;2022-09-09T17:05:13;0.73;;;0.52;;
13660;SDS011;6903;49.480;11.102;2022-09-09T17:07:39;0.60;;;0.60;;
13660;SDS011;6903;49.480;11.102;2022-09-09T17:10:05;0.65;;;0.52;;
13660;SDS011;6903;49.480;11.102;2022-09-09T17:12:31;1.48;;;0.70;;
13660;SDS011;6903;49.480;11.102;2022-09-09T17:14:57;1.45;;;0.68;;
13660;SDS011;6903;49.480;11.102;2022-09-09T17:17:25;1.77;;;0.60;;